sensor_id;sensor_type;location;lat;lon;timestamp;P1;durP1;ratioP1;P2;durP2;ratioP2
2213;SDS011;1113;42.018;23.986;2023-01-25T00:00:28;19.00;;;13.75;;
2213;SDS011;1113;42.018;23.986;2023-01-25T00:02:54;18.77;;;13.75;;
2213;SDS011;1113;42.018;23.986;2023-01-25T00:05:21;20.98;;;13.23;;
2213;SDS011;1113;42.018;23.986;2023-01-25T00:07:48;19.15;;;13.38;;
2213;SDS011;1113;42.018;23.986;2023-01-25T00:10:15;21.60;;;15.55;;
2213;SDS011;1113;42.018;23.986;2023-01-25T00:12:43;19.52;;;14.10;;
2213;SDS011;1113;42.018;23.986;2023-01-25T00:15:10;23.30;;;15.10;;
2213;SDS011;1113;42.018;23.986;2023-01-25T00:17:37;20.60;;;15.00;;
2213;SDS011;1113;42.018;23.986;2023-01-25T00:20:04;20.83;;;14.50;;
2213;SDS011;1113;42.018;23.986;2023-01-25T00:22:32;23.63;;;18.20;;
2213;SDS011;1113;42.018;23.986;2023-01-25T00:24:59;24.92;;;17.30;;
2213;SDS011;1113;42.018;23.986;2023-01-25T00:27:25;24.10;;;19.25;;
2213;SDS011;1113;42.018;23.986;2023-01-25T00:29:53;24.38;;;17.75;;
2213;SDS011;1113;42.018;23.986;2023-01-25T00:32:32;19.80;;;14.32;;
2213;SDS011;1113;42.018;23.986;2023-01-25T00:35:07;17.95;;;12.63;;
2213;SDS011;1113;42.018;23.986;2023-01-25T00:37:38;20.08;;;13.32;;
2213;SDS011;1113;42.018;23.986;2023-01-25T00:40:08;19.77;;;13.77;;
2213;SDS011;1113;42.018;23.986;2023-01-25T00:42:36;19.20;;;13.10;;
2213;SDS011;1113;42.018;23.986;2023-01-25T00:45:06;17.90;;;12.55;;
2213;SDS011;1113;42.018;23.986;2023-01-25T00:47:35;19.58;;;13.02;;
2213;SDS011;1113;42.018;23.986;2023-01-25T00:50:04;17.98;;;13.45;;
2213;SDS011;1113;42.018;23.986;2023-01-25T00:52:32;19.50;;;14.32;;
2213;SDS011;1113;42.018;23.986;2023-01-25T00:54:59;25.52;;;15.10;;
2213;SDS011;1113;42.018;23.986;2023-01-25T00:57:25;18.67;;;13.95;;
2213;SDS011;1113;42.018;23.986;2023-01-25T00:59:52;17.92;;;12.98;;
2213;SDS011;1113;42.018;23.986;2023-01-25T01:02:20;18.45;;;12.80;;
2213;SDS011;1113;42.018;23.986;2023-01-25T01:04:47;19.75;;;15.60;;
2213;SDS011;1113;42.018;23.986;2023-01-25T01:07:14;22.40;;;14.65;;
2213;SDS011;1113;42.018;23.986;2023-01-25T01:09:41;21.60;;;14.52;;
2213;SDS011;1113;42.018;23.986;2023-01-25T01:12:08;25.33;;;14.77;;
2213;SDS011;1113;42.018;23.986;2023-01-25T01:14:34;21.35;;;15.30;;
2213;SDS011;1113;42.018;23.986;2023-01-25T01:17:01;19.27;;;14.38;;
2213;SDS011;1113;42.018;23.986;2023-01-25T01:19:30;16.13;;;11.98;;
2213;SDS011;1113;42.018;23.986;2023-01-25T01:21:57;15.93;;;11.43;;
2213;SDS011;1113;42.018;23.986;2023-01-25T01:24:24;18.38;;;12.70;;
2213;SDS011;1113;42.018;23.986;2023-01-25T01:26:50;19.08;;;14.48;;
2213;SDS011;1113;42.018;23.986;2023-01-25T01:29:17;19.58;;;14.45;;
2213;SDS011;1113;42.018;23.986;2023-01-25T01:31:44;22.52;;;14.20;;
2213;SDS011;1113;42.018;23.986;2023-01-25T01:34:11;22.30;;;15.27;;
2213;SDS011;1113;42.018;23.986;2023-01-25T01:36:41;22.70;;;16.60;;
2213;SDS011;1113;42.018;23.986;2023-01-25T01:39:07;24.27;;;18.02;;
2213;SDS011;1113;42.018;23.986;2023-01-25T01:41:34;23.63;;;16.70;;
2213;SDS011;1113;42.018;23.986;2023-01-25T01:44:02;23.10;;;15.35;;
2213;SDS011;1113;42.018;23.986;2023-01-25T01:46:30;21.23;;;16.15;;
2213;SDS011;1113;42.018;23.986;2023-01-25T01:49:02;22.15;;;16.58;;
2213;SDS011;1113;42.018;23.986;2023-01-25T01:51:38;28.90;;;22.73;;
2213;SDS011;1113;42.018;23.986;2023-01-25T01:54:11;24.42;;;16.58;;
2213;SDS011;1113;42.018;23.986;2023-01-25T01:56:45;21.20;;;15.70;;
2213;SDS011;1113;42.018;23.986;2023-01-25T01:59:17;22.52;;;16.33;;
2213;SDS011;1113;42.018;23.986;2023-01-25T02:01:46;26.23;;;18.48;;
2213;SDS011;1113;42.018;23.986;2023-01-25T02:04:13;30.48;;;21.23;;
2213;SDS011;1113;42.018;23.986;2023-01-25T02:06:46;25.38;;;18.63;;
2213;SDS011;1113;42.018;23.986;2023-01-25T02:09:17;23.77;;;17.40;;
2213;SDS011;1113;42.018;23.986;2023-01-25T02:11:46;25.85;;;18.05;;
2213;SDS011;1113;42.018;23.986;2023-01-25T02:14:15;26.67;;;16.20;;
2213;SDS011;1113;42.018;23.986;2023-01-25T02:16:42;27.75;;;15.75;;
2213;SDS011;1113;42.018;23.986;2023-01-25T02:19:10;24.45;;;17.20;;
2213;SDS011;1113;42.018;23.986;2023-01-25T02:21:43;29.83;;;20.10;;
2213;SDS011;1113;42.018;23.986;2023-01-25T02:24:14;27.05;;;19.20;;
2213;SDS011;1113;42.018;23.986;2023-01-25T02:26:47;26.42;;;16.70;;
2213;SDS011;1113;42.018;23.986;2023-01-25T02:29:14;27.85;;;18.02;;
2213;SDS011;1113;42.018;23.986;2023-01-25T02:31:43;30.85;;;17.27;;
2213;SDS011;1113;42.018;23.986;2023-01-25T02:34:11;28.40;;;19.63;;
2213;SDS011;1113;42.018;23.986;2023-01-25T02:36:37;28.35;;;18.50;;
2213;SDS011;1113;42.018;23.986;2023-01-25T02:39:05;36.22;;;18.45;;
2213;SDS011;1113;42.018;23.986;2023-01-25T02:41:35;32.80;;;18.08;;
2213;SDS011;1113;42.018;23.986;2023-01-25T02:44:05;32.47;;;18.77;;
2213;SDS011;1113;42.018;23.986;2023-01-25T02:46:35;29.83;;;18.55;;
2213;SDS011;1113;42.018;23.986;2023-01-25T02:49:04;36.38;;;22.02;;
2213;SDS011;1113;42.018;23.986;2023-01-25T02:51:33;35.72;;;21.92;;
2213;SDS011;1113;42.018;23.986;2023-01-25T02:54:02;28.88;;;18.40;;
2213;SDS011;1113;42.018;23.986;2023-01-25T02:56:31;24.08;;;14.82;;
2213;SDS011;1113;42.018;23.986;2023-01-25T02:58:58;21.40;;;15.15;;
2213;SDS011;1113;42.018;23.986;2023-01-25T03:01:30;26.65;;;17.00;;
2213;SDS011;1113;42.018;23.986;2023-01-25T03:03:57;19.95;;;14.90;;
2213;SDS011;1113;42.018;23.986;2023-01-25T03:06:24;22.80;;;14.70;;
2213;SDS011;1113;42.018;23.986;2023-01-25T03:08:51;21.27;;;14.55;;
2213;SDS011;1113;42.018;23.986;2023-01-25T03:11:18;23.70;;;15.10;;
2213;SDS011;1113;42.018;23.986;2023-01-25T03:13:45;23.13;;;15.98;;
2213;SDS011;1113;42.018;23.986;2023-01-25T03:16:12;24.88;;;17.63;;
2213;SDS011;1113;42.018;23.986;2023-01-25T03:18:40;28.95;;;17.75;;
2213;SDS011;1113;42.018;23.986;2023-01-25T03:21:08;29.13;;;19.52;;
2213;SDS011;1113;42.018;23.986;2023-01-25T03:23:37;29.75;;;18.92;;
2213;SDS011;1113;42.018;23.986;2023-01-25T03:26:07;30.35;;;20.33;;
2213;SDS011;1113;42.018;23.986;2023-01-25T03:28:36;28.25;;;17.45;;
2213;SDS011;1113;42.018;23.986;2023-01-25T03:31:03;27.50;;;15.63;;
2213;SDS011;1113;42.018;23.986;2023-01-25T03:33:30;23.38;;;16.35;;
2213;SDS011;1113;42.018;23.986;2023-01-25T03:35:59;25.05;;;16.35;;
2213;SDS011;1113;42.018;23.986;2023-01-25T03:38:26;25.98;;;16.55;;
2213;SDS011;1113;42.018;23.986;2023-01-25T03:40:53;25.45;;;16.90;;
2213;SDS011;1113;42.018;23.986;2023-01-25T03:43:20;27.40;;;18.70;;
2213;SDS011;1113;42.018;23.986;2023-01-25T03:45:50;28.48;;;19.30;;
2213;SDS011;1113;42.018;23.986;2023-01-25T03:48:18;28.88;;;19.65;;
2213;SDS011;1113;42.018;23.986;2023-01-25T03:50:47;30.15;;;20.92;;
2213;SDS011;1113;42.018;23.986;2023-01-25T03:53:16;32.10;;;19.63;;
2213;SDS011;1113;42.018;23.986;2023-01-25T03:55:54;30.35;;;19.15;;
2213;SDS011;1113;42.018;23.986;2023-01-25T03:58:22;28.17;;;18.75;;
2213;SDS011;1113;42.018;23.986;2023-01-25T04:00:50;28.33;;;18.80;;
2213;SDS011;1113;42.018;23.986;2023-01-25T04:03:19;31.55;;;19.75;;
2213;SDS011;1113;42.018;23.986;2023-01-25T04:05:46;37.90;;;22.88;;
2213;SDS011;1113;42.018;23.986;2023-01-25T04:08:13;31.08;;;21.95;;
2213;SDS011;1113;42.018;23.986;2023-01-25T04:10:41;30.75;;;21.42;;
2213;SDS011;1113;42.018;23.986;2023-01-25T04:13:08;29.50;;;21.98;;
2213;SDS011;1113;42.018;23.986;2023-01-25T04:15:35;22.88;;;16.50;;
2213;SDS011;1113;42.018;23.986;2023-01-25T04:18:02;20.23;;;15.40;;
2213;SDS011;1113;42.018;23.986;2023-01-25T04:20:29;26.00;;;18.30;;
2213;SDS011;1113;42.018;23.986;2023-01-25T04:22:56;22.27;;;16.38;;
2213;SDS011;1113;42.018;23.986;2023-01-25T04:25:23;19.85;;;14.43;;
2213;SDS011;1113;42.018;23.986;2023-01-25T04:27:51;22.95;;;16.70;;
2213;SDS011;1113;42.018;23.986;2023-01-25T04:30:18;24.38;;;16.73;;
2213;SDS011;1113;42.018;23.986;2023-01-25T04:32:45;19.98;;;14.80;;
2213;SDS011;1113;42.018;23.986;2023-01-25T04:35:13;21.98;;;14.95;;
2213;SDS011;1113;42.018;23.986;2023-01-25T04:37:40;25.17;;;16.55;;
2213;SDS011;1113;42.018;23.986;2023-01-25T04:40:08;21.75;;;15.27;;
2213;SDS011;1113;42.018;23.986;2023-01-25T04:42:35;21.10;;;16.52;;
2213;SDS011;1113;42.018;23.986;2023-01-25T04:45:04;21.42;;;16.45;;
2213;SDS011;1113;42.018;23.986;2023-01-25T04:47:31;18.15;;;15.73;;
2213;SDS011;1113;42.018;23.986;2023-01-25T04:50:00;18.42;;;14.73;;
2213;SDS011;1113;42.018;23.986;2023-01-25T04:52:29;23.10;;;15.90;;
2213;SDS011;1113;42.018;23.986;2023-01-25T04:54:56;22.42;;;17.75;;
2213;SDS011;1113;42.018;23.986;2023-01-25T04:57:23;24.67;;;18.23;;
2213;SDS011;1113;42.018;23.986;2023-01-25T04:59:50;23.35;;;18.92;;
2213;SDS011;1113;42.018;23.986;2023-01-25T05:02:18;20.63;;;15.95;;
2213;SDS011;1113;42.018;23.986;2023-01-25T05:04:45;22.80;;;19.10;;
2213;SDS011;1113;42.018;23.986;2023-01-25T05:07:12;24.80;;;21.08;;
2213;SDS011;1113;42.018;23.986;2023-01-25T05:09:39;22.92;;;17.52;;
2213;SDS011;1113;42.018;23.986;2023-01-25T05:12:05;18.50;;;14.98;;
2213;SDS011;1113;42.018;23.986;2023-01-25T05:14:35;18.15;;;15.13;;
2213;SDS011;1113;42.018;23.986;2023-01-25T05:17:03;20.70;;;16.15;;
2213;SDS011;1113;42.018;23.986;2023-01-25T05:19:34;30.75;;;21.65;;
2213;SDS011;1113;42.018;23.986;2023-01-25T05:22:02;31.90;;;21.10;;
2213;SDS011;1113;42.018;23.986;2023-01-25T05:24:32;33.95;;;22.10;;
2213;SDS011;1113;42.018;23.986;2023-01-25T05:26:59;25.67;;;19.98;;
2213;SDS011;1113;42.018;23.986;2023-01-25T05:29:27;20.70;;;17.63;;
2213;SDS011;1113;42.018;23.986;2023-01-25T05:31:55;15.98;;;14.15;;
2213;SDS011;1113;42.018;23.986;2023-01-25T05:34:22;21.35;;;16.48;;
2213;SDS011;1113;42.018;23.986;2023-01-25T05:36:51;23.77;;;18.40;;
2213;SDS011;1113;42.018;23.986;2023-01-25T05:39:18;23.02;;;17.83;;
2213;SDS011;1113;42.018;23.986;2023-01-25T05:41:45;19.70;;;16.83;;
2213;SDS011;1113;42.018;23.986;2023-01-25T05:44:12;20.60;;;16.52;;
2213;SDS011;1113;42.018;23.986;2023-01-25T05:46:39;20.33;;;16.83;;
2213;SDS011;1113;42.018;23.986;2023-01-25T05:49:06;24.80;;;18.60;;
2213;SDS011;1113;42.018;23.986;2023-01-25T05:51:33;38.97;;;29.30;;
2213;SDS011;1113;42.018;23.986;2023-01-25T05:54:02;44.40;;;32.92;;
2213;SDS011;1113;42.018;23.986;2023-01-25T05:56:29;47.13;;;33.95;;
2213;SDS011;1113;42.018;23.986;2023-01-25T05:58:56;44.65;;;32.97;;
2213;SDS011;1113;42.018;23.986;2023-01-25T06:01:25;34.35;;;24.67;;
2213;SDS011;1113;42.018;23.986;2023-01-25T06:03:52;27.15;;;20.42;;
2213;SDS011;1113;42.018;23.986;2023-01-25T06:06:19;26.45;;;19.52;;
2213;SDS011;1113;42.018;23.986;2023-01-25T06:08:46;32.88;;;20.75;;
2213;SDS011;1113;42.018;23.986;2023-01-25T06:11:16;28.70;;;20.00;;
2213;SDS011;1113;42.018;23.986;2023-01-25T06:13:44;26.02;;;18.80;;
2213;SDS011;1113;42.018;23.986;2023-01-25T06:16:11;28.02;;;22.35;;
2213;SDS011;1113;42.018;23.986;2023-01-25T06:18:38;21.90;;;17.13;;
2213;SDS011;1113;42.018;23.986;2023-01-25T06:21:05;19.00;;;14.98;;
2213;SDS011;1113;42.018;23.986;2023-01-25T06:23:32;18.77;;;13.50;;
2213;SDS011;1113;42.018;23.986;2023-01-25T06:25:59;21.65;;;16.27;;
2213;SDS011;1113;42.018;23.986;2023-01-25T06:28:29;21.23;;;15.52;;
2213;SDS011;1113;42.018;23.986;2023-01-25T06:31:01;25.15;;;19.40;;
2213;SDS011;1113;42.018;23.986;2023-01-25T06:33:29;26.92;;;18.90;;
2213;SDS011;1113;42.018;23.986;2023-01-25T06:35:58;23.40;;;17.48;;
2213;SDS011;1113;42.018;23.986;2023-01-25T06:38:25;21.55;;;16.15;;
2213;SDS011;1113;42.018;23.986;2023-01-25T06:40:52;19.05;;;16.20;;
2213;SDS011;1113;42.018;23.986;2023-01-25T06:43:19;25.55;;;15.27;;
2213;SDS011;1113;42.018;23.986;2023-01-25T06:45:47;20.58;;;15.85;;
2213;SDS011;1113;42.018;23.986;2023-01-25T06:48:14;25.88;;;18.40;;
2213;SDS011;1113;42.018;23.986;2023-01-25T06:50:41;25.30;;;17.65;;
2213;SDS011;1113;42.018;23.986;2023-01-25T06:53:08;24.95;;;19.05;;
2213;SDS011;1113;42.018;23.986;2023-01-25T06:55:34;21.30;;;16.95;;
2213;SDS011;1113;42.018;23.986;2023-01-25T06:58:01;21.80;;;15.85;;
2213;SDS011;1113;42.018;23.986;2023-01-25T07:00:28;28.30;;;23.27;;
2213;SDS011;1113;42.018;23.986;2023-01-25T07:02:56;21.83;;;16.58;;
2213;SDS011;1113;42.018;23.986;2023-01-25T07:05:23;22.20;;;17.23;;
2213;SDS011;1113;42.018;23.986;2023-01-25T07:07:50;24.55;;;18.30;;
2213;SDS011;1113;42.018;23.986;2023-01-25T07:10:16;25.55;;;19.00;;
2213;SDS011;1113;42.018;23.986;2023-01-25T07:12:43;31.65;;;22.17;;
2213;SDS011;1113;42.018;23.986;2023-01-25T07:15:10;34.13;;;24.55;;
2213;SDS011;1113;42.018;23.986;2023-01-25T07:17:37;37.13;;;25.13;;
2213;SDS011;1113;42.018;23.986;2023-01-25T07:20:06;42.25;;;29.17;;
2213;SDS011;1113;42.018;23.986;2023-01-25T07:22:34;44.45;;;29.67;;
2213;SDS011;1113;42.018;23.986;2023-01-25T07:25:00;28.40;;;20.70;;
2213;SDS011;1113;42.018;23.986;2023-01-25T07:27:31;20.90;;;15.70;;
2213;SDS011;1113;42.018;23.986;2023-01-25T07:29:58;21.17;;;13.50;;
2213;SDS011;1113;42.018;23.986;2023-01-25T07:32:25;20.42;;;14.35;;
2213;SDS011;1113;42.018;23.986;2023-01-25T07:34:53;25.75;;;16.60;;
2213;SDS011;1113;42.018;23.986;2023-01-25T07:37:21;20.83;;;15.07;;
2213;SDS011;1113;42.018;23.986;2023-01-25T07:39:48;26.58;;;18.10;;
2213;SDS011;1113;42.018;23.986;2023-01-25T07:42:14;33.08;;;19.15;;
2213;SDS011;1113;42.018;23.986;2023-01-25T07:44:41;26.98;;;17.52;;
2213;SDS011;1113;42.018;23.986;2023-01-25T07:47:08;24.33;;;16.23;;
2213;SDS011;1113;42.018;23.986;2023-01-25T07:49:35;21.38;;;15.27;;
2213;SDS011;1113;42.018;23.986;2023-01-25T07:52:02;22.70;;;17.52;;
2213;SDS011;1113;42.018;23.986;2023-01-25T07:54:30;24.13;;;17.63;;
2213;SDS011;1113;42.018;23.986;2023-01-25T07:56:57;25.33;;;18.10;;
2213;SDS011;1113;42.018;23.986;2023-01-25T07:59:24;19.98;;;14.93;;
2213;SDS011;1113;42.018;23.986;2023-01-25T08:01:51;25.02;;;20.05;;
2213;SDS011;1113;42.018;23.986;2023-01-25T08:04:18;29.08;;;21.75;;
2213;SDS011;1113;42.018;23.986;2023-01-25T08:06:45;26.10;;;19.85;;
2213;SDS011;1113;42.018;23.986;2023-01-25T08:09:13;23.55;;;16.35;;
2213;SDS011;1113;42.018;23.986;2023-01-25T08:11:42;17.73;;;13.48;;
2213;SDS011;1113;42.018;23.986;2023-01-25T08:14:09;18.75;;;12.50;;
2213;SDS011;1113;42.018;23.986;2023-01-25T08:16:36;19.38;;;14.80;;
2213;SDS011;1113;42.018;23.986;2023-01-25T08:19:03;22.98;;;17.98;;
2213;SDS011;1113;42.018;23.986;2023-01-25T08:21:30;26.25;;;18.10;;
2213;SDS011;1113;42.018;23.986;2023-01-25T08:23:58;28.13;;;18.38;;
2213;SDS011;1113;42.018;23.986;2023-01-25T08:26:26;27.08;;;20.48;;
2213;SDS011;1113;42.018;23.986;2023-01-25T08:28:55;31.30;;;21.70;;
2213;SDS011;1113;42.018;23.986;2023-01-25T08:31:23;26.80;;;18.15;;
2213;SDS011;1113;42.018;23.986;2023-01-25T08:33:51;24.50;;;17.70;;
2213;SDS011;1113;42.018;23.986;2023-01-25T08:36:18;26.83;;;19.13;;
2213;SDS011;1113;42.018;23.986;2023-01-25T08:38:51;23.35;;;15.70;;
2213;SDS011;1113;42.018;23.986;2023-01-25T08:41:20;26.55;;;14.90;;
2213;SDS011;1113;42.018;23.986;2023-01-25T08:43:47;24.10;;;16.83;;
2213;SDS011;1113;42.018;23.986;2023-01-25T08:46:15;25.52;;;16.58;;
2213;SDS011;1113;42.018;23.986;2023-01-25T08:48:42;26.17;;;17.10;;
2213;SDS011;1113;42.018;23.986;2023-01-25T08:51:10;27.92;;;18.45;;
2213;SDS011;1113;42.018;23.986;2023-01-25T08:53:38;25.20;;;16.30;;
2213;SDS011;1113;42.018;23.986;2023-01-25T08:56:05;16.23;;;11.18;;
2213;SDS011;1113;42.018;23.986;2023-01-25T08:58:33;19.88;;;13.80;;
2213;SDS011;1113;42.018;23.986;2023-01-25T09:01:03;21.38;;;15.68;;
2213;SDS011;1113;42.018;23.986;2023-01-25T09:03:34;25.80;;;17.48;;
2213;SDS011;1113;42.018;23.986;2023-01-25T09:06:02;20.73;;;16.35;;
2213;SDS011;1113;42.018;23.986;2023-01-25T09:08:30;27.52;;;18.08;;
2213;SDS011;1113;42.018;23.986;2023-01-25T09:10:59;38.63;;;25.80;;
2213;SDS011;1113;42.018;23.986;2023-01-25T09:13:26;30.55;;;20.48;;
2213;SDS011;1113;42.018;23.986;2023-01-25T09:15:57;23.08;;;15.98;;
2213;SDS011;1113;42.018;23.986;2023-01-25T09:18:24;26.00;;;16.52;;
2213;SDS011;1113;42.018;23.986;2023-01-25T09:20:53;22.55;;;14.02;;
2213;SDS011;1113;42.018;23.986;2023-01-25T09:23:22;23.33;;;16.45;;
2213;SDS011;1113;42.018;23.986;2023-01-25T09:25:54;26.00;;;17.90;;
2213;SDS011;1113;42.018;23.986;2023-01-25T09:28:23;30.45;;;21.05;;
2213;SDS011;1113;42.018;23.986;2023-01-25T09:30:54;20.73;;;14.60;;
2213;SDS011;1113;42.018;23.986;2023-01-25T09:33:23;22.23;;;14.25;;
2213;SDS011;1113;42.018;23.986;2023-01-25T09:35:50;25.92;;;15.05;;
2213;SDS011;1113;42.018;23.986;2023-01-25T09:38:19;17.30;;;12.45;;
2213;SDS011;1113;42.018;23.986;2023-01-25T09:40:49;15.85;;;11.02;;
2213;SDS011;1113;42.018;23.986;2023-01-25T09:43:42;18.92;;;15.00;;
2213;SDS011;1113;42.018;23.986;2023-01-25T09:46:22;22.02;;;13.88;;
2213;SDS011;1113;42.018;23.986;2023-01-25T09:49:02;15.43;;;9.90;;
2213;SDS011;1113;42.018;23.986;2023-01-25T09:51:41;18.67;;;10.30;;
2213;SDS011;1113;42.018;23.986;2023-01-25T09:54:20;18.67;;;11.38;;
2213;SDS011;1113;42.018;23.986;2023-01-25T09:56:48;14.45;;;10.63;;
2213;SDS011;1113;42.018;23.986;2023-01-25T09:59:17;15.27;;;11.00;;
2213;SDS011;1113;42.018;23.986;2023-01-25T10:01:50;21.10;;;14.95;;
2213;SDS011;1113;42.018;23.986;2023-01-25T10:04:21;22.77;;;15.95;;
2213;SDS011;1113;42.018;23.986;2023-01-25T10:06:51;20.48;;;13.63;;
2213;SDS011;1113;42.018;23.986;2023-01-25T10:09:23;24.88;;;16.60;;
2213;SDS011;1113;42.018;23.986;2023-01-25T10:11:58;21.10;;;14.68;;
2213;SDS011;1113;42.018;23.986;2023-01-25T10:14:29;13.55;;;10.02;;
2213;SDS011;1113;42.018;23.986;2023-01-25T10:17:02;11.23;;;8.63;;
2213;SDS011;1113;42.018;23.986;2023-01-25T10:19:39;12.80;;;8.48;;
2213;SDS011;1113;42.018;23.986;2023-01-25T10:22:16;18.70;;;12.95;;
2213;SDS011;1113;42.018;23.986;2023-01-25T10:24:55;19.23;;;12.55;;
2213;SDS011;1113;42.018;23.986;2023-01-25T10:27:44;16.48;;;10.65;;
2213;SDS011;1113;42.018;23.986;2023-01-25T10:30:25;14.32;;;10.55;;
2213;SDS011;1113;42.018;23.986;2023-01-25T10:32:53;13.55;;;9.13;;
2213;SDS011;1113;42.018;23.986;2023-01-25T10:35:26;14.73;;;9.75;;
2213;SDS011;1113;42.018;23.986;2023-01-25T10:37:56;13.38;;;8.60;;
2213;SDS011;1113;42.018;23.986;2023-01-25T10:40:29;15.80;;;10.88;;
2213;SDS011;1113;42.018;23.986;2023-01-25T10:43:06;18.92;;;12.02;;
2213;SDS011;1113;42.018;23.986;2023-01-25T10:45:41;21.10;;;12.85;;
2213;SDS011;1113;42.018;23.986;2023-01-25T10:48:10;17.55;;;12.43;;
2213;SDS011;1113;42.018;23.986;2023-01-25T10:50:42;26.30;;;15.43;;
2213;SDS011;1113;42.018;23.986;2023-01-25T10:56:11;15.73;;;10.63;;
2213;SDS011;1113;42.018;23.986;2023-01-25T10:58:46;20.80;;;13.68;;
2213;SDS011;1113;42.018;23.986;2023-01-25T11:01:23;12.70;;;9.82;;
2213;SDS011;1113;42.018;23.986;2023-01-25T11:03:52;15.27;;;11.23;;
2213;SDS011;1113;42.018;23.986;2023-01-25T11:06:30;16.95;;;11.70;;
2213;SDS011;1113;42.018;23.986;2023-01-25T11:08:58;19.80;;;13.90;;
2213;SDS011;1113;42.018;23.986;2023-01-25T11:11:29;17.52;;;12.70;;
2213;SDS011;1113;42.018;23.986;2023-01-25T11:14:00;19.65;;;13.25;;
2213;SDS011;1113;42.018;23.986;2023-01-25T11:16:30;17.70;;;11.95;;
2213;SDS011;1113;42.018;23.986;2023-01-25T11:18:59;17.58;;;12.55;;
2213;SDS011;1113;42.018;23.986;2023-01-25T11:21:29;21.90;;;14.35;;
2213;SDS011;1113;42.018;23.986;2023-01-25T11:23:57;29.13;;;20.48;;
2213;SDS011;1113;42.018;23.986;2023-01-25T11:26:27;23.70;;;14.10;;
2213;SDS011;1113;42.018;23.986;2023-01-25T11:29:05;17.75;;;13.10;;
2213;SDS011;1113;42.018;23.986;2023-01-25T11:31:35;18.73;;;13.48;;
2213;SDS011;1113;42.018;23.986;2023-01-25T11:34:07;19.42;;;14.65;;
2213;SDS011;1113;42.018;23.986;2023-01-25T11:36:37;13.45;;;10.13;;
2213;SDS011;1113;42.018;23.986;2023-01-25T11:39:17;23.25;;;18.30;;
2213;SDS011;1113;42.018;23.986;2023-01-25T11:42:01;26.58;;;18.30;;
2213;SDS011;1113;42.018;23.986;2023-01-25T11:47:49;22.23;;;15.43;;
2213;SDS011;1113;42.018;23.986;2023-01-25T11:50:27;25.88;;;17.80;;
2213;SDS011;1113;42.018;23.986;2023-01-25T11:56:02;23.27;;;14.85;;
2213;SDS011;1113;42.018;23.986;2023-01-25T11:58:44;27.13;;;18.88;;
2213;SDS011;1113;42.018;23.986;2023-01-25T12:01:26;34.92;;;21.42;;
2213;SDS011;1113;42.018;23.986;2023-01-25T12:07:07;32.72;;;20.27;;
2213;SDS011;1113;42.018;23.986;2023-01-25T12:13:15;22.85;;;16.30;;
2213;SDS011;1113;42.018;23.986;2023-01-25T12:15:53;26.73;;;17.98;;
2213;SDS011;1113;42.018;23.986;2023-01-25T12:18:43;30.27;;;19.55;;
2213;SDS011;1113;42.018;23.986;2023-01-25T12:21:28;23.98;;;16.50;;
2213;SDS011;1113;42.018;23.986;2023-01-25T12:24:15;20.38;;;13.77;;
2213;SDS011;1113;42.018;23.986;2023-01-25T12:26:59;23.88;;;14.55;;
2213;SDS011;1113;42.018;23.986;2023-01-25T12:29:36;30.75;;;16.25;;
2213;SDS011;1113;42.018;23.986;2023-01-25T12:32:08;30.52;;;21.52;;
2213;SDS011;1113;42.018;23.986;2023-01-25T12:34:43;24.48;;;18.10;;
2213;SDS011;1113;42.018;23.986;2023-01-25T12:37:23;25.17;;;18.42;;
2213;SDS011;1113;42.018;23.986;2023-01-25T12:39:59;27.58;;;17.25;;
2213;SDS011;1113;42.018;23.986;2023-01-25T12:42:30;24.30;;;17.10;;
2213;SDS011;1113;42.018;23.986;2023-01-25T12:45:05;27.92;;;17.48;;
2213;SDS011;1113;42.018;23.986;2023-01-25T12:47:40;22.23;;;15.70;;
2213;SDS011;1113;42.018;23.986;2023-01-25T12:50:14;18.02;;;12.88;;
2213;SDS011;1113;42.018;23.986;2023-01-25T12:52:45;21.67;;;14.50;;
2213;SDS011;1113;42.018;23.986;2023-01-25T12:55:15;21.10;;;13.95;;
2213;SDS011;1113;42.018;23.986;2023-01-25T12:57:45;22.27;;;15.38;;
2213;SDS011;1113;42.018;23.986;2023-01-25T13:00:20;20.17;;;14.10;;
2213;SDS011;1113;42.018;23.986;2023-01-25T13:02:57;20.70;;;13.10;;
2213;SDS011;1113;42.018;23.986;2023-01-25T13:05:43;23.30;;;14.18;;
2213;SDS011;1113;42.018;23.986;2023-01-25T13:08:20;23.13;;;15.35;;
2213;SDS011;1113;42.018;23.986;2023-01-25T13:10:53;28.23;;;17.58;;
2213;SDS011;1113;42.018;23.986;2023-01-25T13:13:32;26.05;;;16.65;;
2213;SDS011;1113;42.018;23.986;2023-01-25T13:16:21;22.10;;;15.27;;
2213;SDS011;1113;42.018;23.986;2023-01-25T13:19:18;22.42;;;13.90;;
2213;SDS011;1113;42.018;23.986;2023-01-25T13:21:46;22.75;;;15.50;;
2213;SDS011;1113;42.018;23.986;2023-01-25T13:24:19;23.65;;;14.75;;
2213;SDS011;1113;42.018;23.986;2023-01-25T13:26:58;21.38;;;14.32;;
2213;SDS011;1113;42.018;23.986;2023-01-25T13:35:39;21.40;;;14.93;;
2213;SDS011;1113;42.018;23.986;2023-01-25T13:38:27;25.05;;;15.98;;
2213;SDS011;1113;42.018;23.986;2023-01-25T13:43:46;19.42;;;14.10;;
2213;SDS011;1113;42.018;23.986;2023-01-25T13:46:34;22.70;;;16.02;;
2213;SDS011;1113;42.018;23.986;2023-01-25T13:49:02;21.73;;;14.30;;
2213;SDS011;1113;42.018;23.986;2023-01-25T13:51:35;22.77;;;14.45;;
2213;SDS011;1113;42.018;23.986;2023-01-25T13:54:04;19.35;;;13.18;;
2213;SDS011;1113;42.018;23.986;2023-01-25T13:56:32;21.60;;;14.18;;
2213;SDS011;1113;42.018;23.986;2023-01-25T13:59:00;21.73;;;14.35;;
2213;SDS011;1113;42.018;23.986;2023-01-25T14:01:28;27.75;;;15.88;;
2213;SDS011;1113;42.018;23.986;2023-01-25T14:03:57;25.45;;;15.60;;
2213;SDS011;1113;42.018;23.986;2023-01-25T14:06:27;27.38;;;16.73;;
2213;SDS011;1113;42.018;23.986;2023-01-25T14:08:58;26.10;;;15.30;;
2213;SDS011;1113;42.018;23.986;2023-01-25T14:11:31;21.35;;;15.50;;
2213;SDS011;1113;42.018;23.986;2023-01-25T14:14:01;20.75;;;14.30;;
2213;SDS011;1113;42.018;23.986;2023-01-25T14:16:29;20.15;;;14.30;;
2213;SDS011;1113;42.018;23.986;2023-01-25T14:19:10;19.05;;;14.02;;
2213;SDS011;1113;42.018;23.986;2023-01-25T14:21:48;21.00;;;14.10;;
2213;SDS011;1113;42.018;23.986;2023-01-25T14:24:17;39.97;;;23.38;;
2213;SDS011;1113;42.018;23.986;2023-01-25T14:26:44;23.73;;;15.00;;
2213;SDS011;1113;42.018;23.986;2023-01-25T14:29:16;21.40;;;13.73;;
2213;SDS011;1113;42.018;23.986;2023-01-25T14:31:46;26.98;;;16.13;;
2213;SDS011;1113;42.018;23.986;2023-01-25T14:34:16;27.35;;;17.50;;
2213;SDS011;1113;42.018;23.986;2023-01-25T14:36:44;29.40;;;20.05;;
2213;SDS011;1113;42.018;23.986;2023-01-25T14:39:13;25.63;;;17.63;;
2213;SDS011;1113;42.018;23.986;2023-01-25T14:41:50;22.83;;;16.70;;
2213;SDS011;1113;42.018;23.986;2023-01-25T14:44:18;27.95;;;17.77;;
2213;SDS011;1113;42.018;23.986;2023-01-25T14:46:45;32.63;;;20.05;;
2213;SDS011;1113;42.018;23.986;2023-01-25T14:49:16;29.48;;;19.15;;
2213;SDS011;1113;42.018;23.986;2023-01-25T14:51:52;29.05;;;19.23;;
2213;SDS011;1113;42.018;23.986;2023-01-25T14:57:53;32.92;;;20.13;;
2213;SDS011;1113;42.018;23.986;2023-01-25T15:00:25;32.20;;;21.20;;
2213;SDS011;1113;42.018;23.986;2023-01-25T15:02:56;29.38;;;20.58;;
2213;SDS011;1113;42.018;23.986;2023-01-25T15:05:25;31.02;;;19.80;;
2213;SDS011;1113;42.018;23.986;2023-01-25T15:08:11;26.95;;;18.00;;
2213;SDS011;1113;42.018;23.986;2023-01-25T15:10:48;29.40;;;19.33;;
2213;SDS011;1113;42.018;23.986;2023-01-25T15:13:22;29.98;;;21.58;;
2213;SDS011;1113;42.018;23.986;2023-01-25T15:15:52;47.60;;;29.02;;
2213;SDS011;1113;42.018;23.986;2023-01-25T15:21:08;39.50;;;25.70;;
2213;SDS011;1113;42.018;23.986;2023-01-25T15:23:36;40.80;;;26.02;;